Observation data for Graham on 11/13/2019      Previous  Date       Current Mesonet Observations  Soil Data  Daily Summary Page  Observations in Plain Language
KGHS 130600Z 21006KT M01/M08 A3022 RMK A01 T10081076  RH  060%=      5-min Rain = 0
KGHS 130605Z 21006KT M01/M08 A3022 RMK A01 T10081078  RH  059%=      5-min Rain = 0
KGHS 130610Z 21005KT M01/M08 A3022 RMK A01 T10071077  RH  059%=      5-min Rain = 0
KGHS 130615Z 21005KT M01/M08 A3022 RMK A01 T10081076  RH  060%=      5-min Rain = 0
KGHS 130620Z 20005KT M01/M07 A3022 RMK A01 T10091074  RH  061%=      5-min Rain = 0
KGHS 130625Z 19006KT M01/M07 A3022 RMK A01 T10111074  RH  062%=      5-min Rain = 0
KGHS 130630Z 20006KT M01/M08 A3022 RMK A01 T10111075  RH  062%=      5-min Rain = 0
KGHS 130635Z 20006KT M01/M08 A3022 RMK A01 T10101076  RH  061%=      5-min Rain = 0
KGHS 130640Z 21006KT M01/M08 A3022 RMK A01 T10101076  RH  061%=      5-min Rain = 0
KGHS 130645Z 20006KT M01/M08 A3021 RMK A01 T10101077  RH  060%=      5-min Rain = 0
KGHS 130650Z 19005KT M01/M08 A3021 RMK A01 T10101077  RH  061%=      5-min Rain = 0
KGHS 130655Z 20005KT M01/M08 A302 RMK A01 T10101078  RH  060%=      5-min Rain = 0
KGHS 130700Z 21005KT M01/M08 A302 RMK A01 T10111078  RH  060%=      5-min Rain = 0
KGHS 130705Z 21005KT M01/M08 A3019 RMK A01 T10111078  RH  061%=      5-min Rain = 0
KGHS 130710Z 19006KT M01/M08 A302 RMK A01 T10121077  RH  061%=      5-min Rain = 0
KGHS 130715Z 19006KT M01/M08 A302 RMK A01 T10131077  RH  062%=      5-min Rain = 0
KGHS 130720Z 20005KT M01/M08 A302 RMK A01 T10141079  RH  061%=      5-min Rain = 0
KGHS 130725Z 20005KT M01/M08 A3019 RMK A01 T10121080  RH  060%=      5-min Rain = 0
KGHS 130730Z 21005KT M01/M08 A3019 RMK A01 T10111081  RH  059%=      5-min Rain = 0
KGHS 130735Z 21005KT M01/M08 A3018 RMK A01 T10101081  RH  058%=      5-min Rain = 0
KGHS 130740Z 22005KT M01/M08 A3018 RMK A01 T10091081  RH  058%=      5-min Rain = 0
KGHS 130745Z 21005KT M01/M08 A3018 RMK A01 T10081080  RH  058%=      5-min Rain = 0
KGHS 130750Z 20005KT M01/M08 A3018 RMK A01 T10081080  RH  058%=      5-min Rain = 0
KGHS 130755Z 20004KT M01/M08 A3018 RMK A01 T10081080  RH  058%=      5-min Rain = 0
KGHS 130800Z 19003KT M01/M08 A3017 RMK A01 T10091080  RH  058%=      5-min Rain = 0
KGHS 130805Z 21005KT M01/M08 A3017 RMK A01 T10091082  RH  058%=      5-min Rain = 0
KGHS 130810Z 21005KT M01/M08 A3017 RMK A01 T10091080  RH  058%=      5-min Rain = 0
KGHS 130815Z 21004KT M01/M08 A3016 RMK A01 T10091080  RH  058%=      5-min Rain = 0
KGHS 130820Z 21003KT M01/M08 A3016 RMK A01 T10081081  RH  058%=      5-min Rain = 0
KGHS 130825Z 21004KT M01/M08 A3016 RMK A01 T10081081  RH  058%=      5-min Rain = 0
KGHS 130830Z 21006KT M01/M08 A3016 RMK A01 T10081082  RH  057%=      5-min Rain = 0
KGHS 130835Z 20006KT M01/M08 A3016 RMK A01 T10071082  RH  057%=      5-min Rain = 0
KGHS 130840Z 21007KT M01/M08 A3016 RMK A01 T10061083  RH  056%=      5-min Rain = 0
KGHS 130845Z 21006KT M01/M08 A3015 RMK A01 T10051083  RH  056%=      5-min Rain = 0
KGHS 130850Z 21006KT M01/M08 A3015 RMK A01 T10051083  RH  055%=      5-min Rain = 0
KGHS 130855Z 21007G12KT M00/M08 A3015 RMK A01 T10041083  RH  055%=      5-min Rain = 0
KGHS 130900Z 21008KT M00/M08 A3015 RMK A01 T10031083  RH  055%=      5-min Rain = 0
KGHS 130905Z 20007G12KT M00/M08 A3015 RMK A01 T10031083  RH  055%=      5-min Rain = 0
KGHS 130910Z 19007KT M00/M08 A3015 RMK A01 T10031081  RH  056%=      5-min Rain = 0
KGHS 130915Z 19008KT M01/M08 A3015 RMK A01 T10051081  RH  056%=      5-min Rain = 0
KGHS 130920Z 19009KT M01/M08 A3015 RMK A01 T10051081  RH  056%=      5-min Rain = 0
KGHS 130925Z 18009KT M01/M08 A3015 RMK A01 T10051081  RH  056%=      5-min Rain = 0
KGHS 130930Z 18010KT M01/M08 A3015 RMK A01 T10051081  RH  057%=      5-min Rain = 0
KGHS 130935Z 19008G13KT M01/M08 A3015 RMK A01 T10051081  RH  056%=      5-min Rain = 0
KGHS 130940Z 19009KT M00/M08 A3014 RMK A01 T10041081  RH  056%=      5-min Rain = 0
KGHS 130945Z 19008KT M00/M08 A3014 RMK A01 T10041080  RH  056%=      5-min Rain = 0
KGHS 130950Z 19009KT M00/M08 A3014 RMK A01 T10031081  RH  056%=      5-min Rain = 0
KGHS 130955Z 19009G14KT M00/M08 A3014 RMK A01 T10031081  RH  056%=      5-min Rain = 0
KGHS 131000Z 19009G14KT M00/M08 A3013 RMK A01 T10031080  RH  056%=      5-min Rain = 0
KGHS 131005Z 19008KT M00/M08 A3013 RMK A01 T10031080  RH  056%=      5-min Rain = 0
KGHS 131010Z 19008KT M00/M08 A3013 RMK A01 T10031079  RH  057%=      5-min Rain = 0
KGHS 131015Z 18009KT M00/M08 A3013 RMK A01 T10021078  RH  056%=      5-min Rain = 0
KGHS 131020Z 18008KT M00/M08 A3012 RMK A01 T10021077  RH  057%=      5-min Rain = 0
KGHS 131025Z 19009KT M00/M08 A3012 RMK A01 T10011076  RH  057%=      5-min Rain = 0
KGHS 131030Z 19009KT 00/08 A3012 RMK A01 T00-00-76  RH  057%=      5-min Rain = 0
KGHS 131035Z 18008G13KT 00/08 A3012 RMK A01 T00000-75  RH  057%=      5-min Rain = 0
KGHS 131040Z 19008G14KT 00/07 A3011 RMK A01 T00000-74  RH  057%=      5-min Rain = 0
KGHS 131045Z 19009KT 00/M07 A3011 RMK A01 T00011074  RH  057%=      5-min Rain = 0
KGHS 131050Z 19008KT 00/M07 A301 RMK A01 T00011074  RH  057%=      5-min Rain = 0
KGHS 131055Z 18009G14KT 00/M07 A301 RMK A01 T00011074  RH  057%=      5-min Rain = 0
KGHS 131100Z 19011KT 00/M08 A3009 RMK A01 T00021075  RH  056%=      5-min Rain = 0
KGHS 131105Z 19011G18KT 00/M08 A3009 RMK A01 T00031076  RH  055%=      5-min Rain = 0
KGHS 131110Z 19010KT 00/M08 A3008 RMK A01 T00041076  RH  055%=      5-min Rain = 0
KGHS 131115Z 19009KT 00/M08 A3009 RMK A01 T00041075  RH  055%=      5-min Rain = 0
KGHS 131120Z 18008KT 00/M08 A3008 RMK A01 T00031075  RH  056%=      5-min Rain = 0
KGHS 131125Z 19008KT 00/M08 A3008 RMK A01 T00031075  RH  056%=      5-min Rain = 0
KGHS 131130Z 19008KT 00/M08 A3008 RMK A01 T00041075  RH  056%=      5-min Rain = 0
KGHS 131135Z 19007KT 00/M07 A3008 RMK A01 T00031074  RH  056%=      5-min Rain = 0
KGHS 131140Z 20007KT 00/M07 A3008 RMK A01 T00031073  RH  056%=      5-min Rain = 0
KGHS 131145Z 19008KT 00/M07 A3008 RMK A01 T00031073  RH  056%=      5-min Rain = 0
KGHS 131150Z 19009KT 00/M07 A3008 RMK A01 T00031072  RH  057%=      5-min Rain = 0
KGHS 131155Z 19008KT 00/M07 A3007 RMK A01 T00031072  RH  057%=      5-min Rain = 0
KGHS 131200Z 19008KT 00/M07 A3007 RMK A01 T00031071  RH  057%=      5-min Rain = 0
KGHS 131205Z 18007KT 00/M07 A3007 RMK A01 T00031070  RH  058%=      5-min Rain = 0
KGHS 131210Z 19007KT 00/M07 A3007 RMK A01 T00031070  RH  058%=      5-min Rain = 0
KGHS 131215Z 19007KT 00/M07 A3006 RMK A01 T00031070  RH  058%=      5-min Rain = 0
KGHS 131220Z 19008KT 00/M07 A3006 RMK A01 T00041070  RH  058%=      5-min Rain = 0
KGHS 131225Z 20007G12KT 00/M07 A3006 RMK A01 T00041070  RH  058%=      5-min Rain = 0
KGHS 131230Z 20007KT 00/M07 A3006 RMK A01 T00041070  RH  058%=      5-min Rain = 0
KGHS 131235Z 20006KT 00/M07 A3005 RMK A01 T00041070  RH  058%=      5-min Rain = 0
KGHS 131240Z 21007KT 00/M07 A3005 RMK A01 T00031070  RH  058%=      5-min Rain = 0
KGHS 131245Z 21006KT 00/M07 A3005 RMK A01 T00041072  RH  057%=      5-min Rain = 0
KGHS 131250Z 21006KT 00/M07 A3005 RMK A01 T00041070  RH  058%=      5-min Rain = 0
KGHS 131255Z 21005KT 00/M07 A3005 RMK A01 T00031070  RH  058%=      5-min Rain = 0
KGHS 131300Z 21006KT 00/M07 A3005 RMK A01 T00031072  RH  057%=      5-min Rain = 0
KGHS 131305Z 21005KT 00/M07 A3005 RMK A01 T00031072  RH  057%=      5-min Rain = 0
KGHS 131310Z 20008KT 00/M07 A3005 RMK A01 T00031073  RH  056%=      5-min Rain = 0
KGHS 131315Z 20007KT 00/M07 A3005 RMK A01 T00041073  RH  056%=      5-min Rain = 0
KGHS 131320Z 21008KT 00/M07 A3005 RMK A01 T00041074  RH  056%=      5-min Rain = 0
KGHS 131325Z 21006KT 01/M07 A3005 RMK A01 T00051073  RH  056%=      5-min Rain = 0
KGHS 131330Z 20006KT 01/M07 A3005 RMK A01 T00051073  RH  056%=      5-min Rain = 0
KGHS 131335Z 20006KT 01/M07 A3005 RMK A01 T00051073  RH  056%=      5-min Rain = 0
KGHS 131340Z 20006KT 01/M07 A3005 RMK A01 T00051072  RH  056%=      5-min Rain = 0
KGHS 131345Z 21007KT 01/M07 A3005 RMK A01 T00051071  RH  057%=      5-min Rain = 0
KGHS 131350Z 20008KT 01/M07 A3004 RMK A01 T00061071  RH  056%=      5-min Rain = 0
KGHS 131355Z 20009KT 01/M07 A3004 RMK A01 T00081069  RH  056%=      5-min Rain = 0
KGHS 131400Z 21007KT 01/M07 A3005 RMK A01 T00091067  RH  057%=      5-min Rain = 0
KGHS 131405Z 20008KT 01/M07 A3005 RMK A01 T00091066  RH  057%=      5-min Rain = 0
KGHS 131410Z 20007KT 01/M07 A3005 RMK A01 T00101065  RH  057%=      5-min Rain = 0
KGHS 131415Z 20007KT 01/M06 A3005 RMK A01 T00101064  RH  058%=      5-min Rain = 0
KGHS 131420Z 21007KT 01/M06 A3005 RMK A01 T00101063  RH  058%=      5-min Rain = 0
KGHS 131425Z 21008KT 01/M06 A3004 RMK A01 T00121061  RH  058%=      5-min Rain = 0
KGHS 131430Z 20008KT 01/M06 A3004 RMK A01 T00131061  RH  058%=      5-min Rain = 0
KGHS 131435Z 19008KT 01/M06 A3005 RMK A01 T00141060  RH  058%=      5-min Rain = 0
KGHS 131440Z 20009G14KT 02/M06 A3004 RMK A01 T00151059  RH  058%=      5-min Rain = 0
KGHS 131445Z 20011KT 02/M06 A3004 RMK A01 T00171060  RH  057%=      5-min Rain = 0
KGHS 131450Z 20009KT 02/M06 A3004 RMK A01 T00191058  RH  057%=      5-min Rain = 0
KGHS 131455Z 19010KT 02/M06 A3004 RMK A01 T00211058  RH  056%=      5-min Rain = 0
KGHS 131500Z 19010KT 02/M06 A3004 RMK A01 T00221057  RH  056%=      5-min Rain = 0
KGHS 131505Z 20008KT 02/M06 A3004 RMK A01 T00241055  RH  056%=      5-min Rain = 0
KGHS 131510Z 20007KT 03/M05 A3004 RMK A01 T00261053  RH  056%=      5-min Rain = 0
KGHS 131515Z 21006KT 03/M05 A3004 RMK A01 T00281051  RH  056%=      5-min Rain = 0
KGHS 131520Z 22008G13KT 03/M05 A3004 RMK A01 T00301051  RH  055%=      5-min Rain = 0
KGHS 131525Z 23012KT 03/M05 A3004 RMK A01 T00301051  RH  055%=      5-min Rain = 0
KGHS 131530Z 23008KT 03/M05 A3004 RMK A01 T00321049  RH  056%=      5-min Rain = 0
KGHS 131535Z 23009KT 03/M05 A3005 RMK A01 T00341048  RH  055%=      5-min Rain = 0
KGHS 131540Z 22010KT 03/M05 A3004 RMK A01 T00331049  RH  055%=      5-min Rain = 0
KGHS 131545Z 22011G18KT 03/M05 A3004 RMK A01 T00341047  RH  055%=      5-min Rain = 0
KGHS 131550Z 22011G17KT 03/M05 A3004 RMK A01 T00341047  RH  055%=      5-min Rain = 0
KGHS 131555Z 21012KT 03/M05 A3003 RMK A01 T00341047  RH  056%=      5-min Rain = 0
KGHS 131600Z 20009G14KT 04/M05 A3004 RMK A01 T00351045  RH  056%=      5-min Rain = 0
KGHS 131605Z 20009KT 04/M04 A3004 RMK A01 T00371043  RH  056%=      5-min Rain = 0
KGHS 131610Z 20008KT 04/M04 A3004 RMK A01 T00381041  RH  057%=      5-min Rain = 0
KGHS 131615Z 20011KT 04/M04 A3003 RMK A01 T00401041  RH  056%=      5-min Rain = 0
KGHS 131620Z 20012G17KT 04/M04 A3003 RMK A01 T00401041  RH  056%=      5-min Rain = 0
KGHS 131625Z 21013KT 04/M04 A3003 RMK A01 T00421039  RH  056%=      5-min Rain = 0
KGHS 131630Z 20011KT 05/M04 A3003 RMK A01 T00461037  RH  055%=      5-min Rain = 0
KGHS 131635Z 20015G20KT 05/M04 A3002 RMK A01 T00491036  RH  055%=      5-min Rain = 0
KGHS 131640Z 20012KT 05/M03 A3002 RMK A01 T00491034  RH  055%=      5-min Rain = 0
KGHS 131645Z 20011KT 05/M03 A3002 RMK A01 T00521032  RH  055%=      5-min Rain = 0
KGHS 131650Z 19013KT 06/M03 A3002 RMK A01 T00561031  RH  054%=      5-min Rain = 0
KGHS 131655Z 19015KT 06/M03 A3002 RMK A01 T00581031  RH  053%=      5-min Rain = 0
KGHS 131700Z 20015KT 06/M03 A3001 RMK A01 T00591029  RH  054%=      5-min Rain = 0
KGHS 131705Z 20014KT 06/M03 A3001 RMK A01 T00601027  RH  054%=      5-min Rain = 0
KGHS 131710Z 20013KT 07/M02 A3001 RMK A01 T00651024  RH  053%=      5-min Rain = 0
KGHS 131715Z 19014KT 07/M02 A3001 RMK A01 T00701022  RH  052%=      5-min Rain = 0
KGHS 131720Z 18013G18KT 07/M02 A3001 RMK A01 T00741021  RH  051%=      5-min Rain = 0
KGHS 131725Z 19016KT 08/M02 A3001 RMK A01 T00781019  RH  051%=      5-min Rain = 0
KGHS 131730Z 20016G22KT 08/M02 A30 RMK A01 T00791017  RH  051%=      5-min Rain = 0
KGHS 131735Z 20014KT 08/M02 A3001 RMK A01 T00781017  RH  051%=      5-min Rain = 0
KGHS 131740Z 20015KT 08/M02 A30 RMK A01 T00801016  RH  051%=      5-min Rain = 0
KGHS 131745Z 19014KT 08/M01 A30 RMK A01 T00831014  RH  051%=      5-min Rain = 0
KGHS 131750Z 20015G20KT 09/M01 A30 RMK A01 T00861012  RH  050%=      5-min Rain = 0
KGHS 131755Z 19015G20KT 09/M01 A2999 RMK A01 T00871011  RH  050%=      5-min Rain = 0
KGHS 131800Z 20013KT 09/M01 A2999 RMK A01 T00931008  RH  050%=      5-min Rain = 0
KGHS 131805Z 19015KT 09/M01 A2999 RMK A01 T00921009  RH  050%=      5-min Rain = 0
KGHS 131810Z 20015G20KT 10/M01 A2998 RMK A01 T00951006  RH  050%=      5-min Rain = 0
KGHS 131815Z 21015KT 10/M01 A2998 RMK A01 T00961005  RH  050%=      5-min Rain = 0
KGHS 131820Z 19013KT 10/M01 A2998 RMK A01 T00981005  RH  049%=      5-min Rain = 0
KGHS 131825Z 19013G19KT 10/M00 A2998 RMK A01 T01011004  RH  049%=      5-min Rain = 0
KGHS 131830Z 20014G19KT 10/M01 A2997 RMK A01 T01011005  RH  048%=      5-min Rain = 0
KGHS 131835Z 19013KT 10/M01 A2997 RMK A01 T00981007  RH  049%=      5-min Rain = 0
KGHS 131840Z 18014G20KT 10/M00 A2997 RMK A01 T01021004  RH  048%=      5-min Rain = 0
KGHS 131845Z 20012G18KT 10/M00 A2997 RMK A01 T01031002  RH  049%=      5-min Rain = 0
KGHS 131850Z 19013KT 11/M00 A2996 RMK A01 T01061003  RH  047%=      5-min Rain = 0
KGHS 131855Z 20014G20KT 11/M00 A2996 RMK A01 T01061003  RH  047%=      5-min Rain = 0
KGHS 131900Z 19013KT 11/M00 A2996 RMK A01 T01061002  RH  048%=      5-min Rain = 0
KGHS 131905Z 20015KT 11/00 A2995 RMK A01 T010700-0  RH  048%=      5-min Rain = 0
KGHS 131910Z 20014KT 11/00 A2995 RMK A01 T01090000  RH  048%=      5-min Rain = 0
KGHS 131915Z 20013KT 11/00 A2995 RMK A01 T01110001  RH  047%=      5-min Rain = 0
KGHS 131920Z 20014KT 11/00 A2995 RMK A01 T01140001  RH  046%=      5-min Rain = 0
KGHS 131925Z 19013KT 12/00 A2994 RMK A01 T01150001  RH  046%=      5-min Rain = 0
KGHS 131930Z 20014G19KT 12/00 A2994 RMK A01 T01160002  RH  046%=      5-min Rain = 0
KGHS 131935Z 21011G16KT 12/00 A2994 RMK A01 T01170002  RH  046%=      5-min Rain = 0
KGHS 131940Z 20013G20KT 12/00 A2994 RMK A01 T01190003  RH  045%=      5-min Rain = 0
KGHS 131945Z 19013KT 12/00 A2994 RMK A01 T01190001  RH  045%=      5-min Rain = 0
KGHS 131950Z 19016KT 12/00 A2993 RMK A01 T01150001  RH  046%=      5-min Rain = 0
KGHS 131955Z 19014G19KT 12/00 A2993 RMK A01 T01160002  RH  046%=      5-min Rain = 0
KGHS 132000Z 19013KT 12/00 A2993 RMK A01 T01180003  RH  046%=      5-min Rain = 0
KGHS 132005Z 20014KT 12/00 A2992 RMK A01 T01200004  RH  045%=      5-min Rain = 0
KGHS 132010Z 20016KT 12/00 A2992 RMK A01 T01170002  RH  046%=      5-min Rain = 0
KGHS 132015Z 20015G20KT 12/00 A2992 RMK A01 T01160002  RH  046%=      5-min Rain = 0
KGHS 132020Z 19015KT 12/00 A2992 RMK A01 T01180003  RH  046%=      5-min Rain = 0
KGHS 132025Z 21015G20KT 12/00 A2992 RMK A01 T01170004  RH  046%=      5-min Rain = 0
KGHS 132030Z 20014KT 12/01 A2992 RMK A01 T01190005  RH  046%=      5-min Rain = 0
KGHS 132035Z 19016KT 12/01 A2991 RMK A01 T01190005  RH  046%=      5-min Rain = 0
KGHS 132040Z 19015G21KT 12/01 A2991 RMK A01 T01190006  RH  046%=      5-min Rain = 0
KGHS 132045Z 21015G21KT 12/01 A2991 RMK A01 T01220007  RH  046%=      5-min Rain = 0
KGHS 132050Z 21011G17KT 12/01 A2991 RMK A01 T01230009  RH  046%=      5-min Rain = 0
KGHS 132055Z 19012KT 13/01 A2991 RMK A01 T01250009  RH  046%=      5-min Rain = 0
KGHS 132100Z 20012KT 13/01 A2991 RMK A01 T01250010  RH  046%=      5-min Rain = 0
KGHS 132105Z 19012KT 13/01 A2991 RMK A01 T01280010  RH  045%=      5-min Rain = 0
KGHS 132110Z 19014G19KT 13/01 A2991 RMK A01 T01270009  RH  045%=      5-min Rain = 0
KGHS 132115Z 21011KT 13/01 A2991 RMK A01 T01270010  RH  045%=      5-min Rain = 0
KGHS 132120Z 20010KT 13/01 A2992 RMK A01 T01310011  RH  044%=      5-min Rain = 0
KGHS 132125Z 19009KT 13/01 A2991 RMK A01 T01310010  RH  044%=      5-min Rain = 0
KGHS 132130Z 18011KT 13/01 A2991 RMK A01 T01300008  RH  044%=      5-min Rain = 0
KGHS 132135Z 18012G17KT 13/01 A2991 RMK A01 T01300008  RH  044%=      5-min Rain = 0
KGHS 132140Z 18013G18KT 13/01 A2991 RMK A01 T01280007  RH  044%=      5-min Rain = 0
KGHS 132145Z 19010KT 13/01 A2991 RMK A01 T01270008  RH  045%=      5-min Rain = 0
KGHS 132150Z 18012KT 13/01 A2991 RMK A01 T01280007  RH  044%=      5-min Rain = 0
KGHS 132155Z 18010KT 13/01 A2991 RMK A01 T01270007  RH  044%=      5-min Rain = 0
KGHS 132200Z 19012KT 12/01 A2991 RMK A01 T01240005  RH  045%=      5-min Rain = 0
KGHS 132205Z 19011KT 12/01 A2992 RMK A01 T01200005  RH  046%=      5-min Rain = 0
KGHS 132210Z 20009KT 12/01 A2992 RMK A01 T01210007  RH  046%=      5-min Rain = 0
KGHS 132215Z 20011KT 12/01 A2992 RMK A01 T01220007  RH  046%=      5-min Rain = 0
KGHS 132220Z 19010KT 12/01 A2992 RMK A01 T01220007  RH  046%=      5-min Rain = 0
KGHS 132225Z 19011KT 12/01 A2992 RMK A01 T01220008  RH  046%=      5-min Rain = 0
KGHS 132230Z 20008KT 12/01 A2992 RMK A01 T01230009  RH  046%=      5-min Rain = 0
KGHS 132235Z 18009KT 12/01 A2992 RMK A01 T01240009  RH  046%=      5-min Rain = 0
KGHS 132240Z 18010KT 12/01 A2992 RMK A01 T01240009  RH  046%=      5-min Rain = 0
KGHS 132245Z 20009KT 12/01 A2991 RMK A01 T01240010  RH  046%=      5-min Rain = 0
KGHS 132250Z 19010KT 12/01 A2991 RMK A01 T01240011  RH  046%=      5-min Rain = 0
KGHS 132255Z 19011KT 12/01 A2991 RMK A01 T01230011  RH  047%=      5-min Rain = 0
KGHS 132300Z 19010KT 12/01 A2991 RMK A01 T01230012  RH  047%=      5-min Rain = 0
KGHS 132305Z 19011KT 12/01 A2991 RMK A01 T01220011  RH  047%=      5-min Rain = 0
KGHS 132310Z 19010KT 12/01 A2991 RMK A01 T01210013  RH  048%=      5-min Rain = 0
KGHS 132315Z 19008KT 12/01 A2992 RMK A01 T01210014  RH  048%=      5-min Rain = 0
KGHS 132320Z 19009KT 12/01 A2992 RMK A01 T01200014  RH  049%=      5-min Rain = 0
KGHS 132325Z 20009KT 12/01 A2992 RMK A01 T01190014  RH  049%=      5-min Rain = 0
KGHS 132330Z 20007KT 12/01 A2992 RMK A01 T01170014  RH  050%=      5-min Rain = 0
KGHS 132335Z 19006KT 12/01 A2992 RMK A01 T01150014  RH  051%=      5-min Rain = 0
KGHS 132340Z 19006KT 11/01 A2992 RMK A01 T01140014  RH  051%=      5-min Rain = 0
KGHS 132345Z 18008G13KT 11/02 A2992 RMK A01 T01110015  RH  052%=      5-min Rain = 0
KGHS 132350Z 18010KT 11/01 A2992 RMK A01 T01050013  RH  054%=      5-min Rain = 0
KGHS 132355Z 18009KT 10/01 A2993 RMK A01 T01020012  RH  055%=      5-min Rain = 0
KGHS 140000Z 19010KT 10/01 A2993 RMK A01 T00990011  RH  055%=      5-min Rain = 0
KGHS 140005Z 18010KT 10/01 A2993 RMK A01 T00970011  RH  056%=      5-min Rain = 0
KGHS 140010Z 19009KT 09/01 A2993 RMK A01 T00940011  RH  057%=      5-min Rain = 0
KGHS 140015Z 18008KT 09/01 A2994 RMK A01 T00920010  RH  057%=      5-min Rain = 0
KGHS 140020Z 18008KT 09/01 A2994 RMK A01 T00910010  RH  058%=      5-min Rain = 0
KGHS 140025Z 19007KT 09/01 A2994 RMK A01 T00900009  RH  058%=      5-min Rain = 0
KGHS 140030Z 18006KT 09/01 A2994 RMK A01 T00890009  RH  058%=      5-min Rain = 0
KGHS 140035Z 18006KT 09/01 A2995 RMK A01 T00890008  RH  058%=      5-min Rain = 0
KGHS 140040Z 17007G12KT 09/01 A2995 RMK A01 T00880008  RH  058%=      5-min Rain = 0
KGHS 140045Z 17008KT 09/01 A2995 RMK A01 T00870008  RH  058%=      5-min Rain = 0
KGHS 140050Z 18008KT 09/01 A2996 RMK A01 T00870008  RH  059%=      5-min Rain = 0
KGHS 140055Z 18008KT 09/01 A2996 RMK A01 T00850009  RH  060%=      5-min Rain = 0
KGHS 140100Z 18007KT 08/01 A2996 RMK A01 T00820009  RH  060%=      5-min Rain = 0
KGHS 140105Z 18006KT 08/01 A2996 RMK A01 T00820008  RH  060%=      5-min Rain = 0
KGHS 140110Z 18006KT 08/01 A2996 RMK A01 T00810008  RH  061%=      5-min Rain = 0
KGHS 140115Z 18004KT 08/01 A2996 RMK A01 T00790008  RH  061%=      5-min Rain = 0
KGHS 140120Z 17004KT 08/01 A2997 RMK A01 T00780008  RH  062%=      5-min Rain = 0
KGHS 140125Z 18004KT 08/01 A2997 RMK A01 T00780007  RH  062%=      5-min Rain = 0
KGHS 140130Z 18004KT 08/01 A2997 RMK A01 T00780007  RH  062%=      5-min Rain = 0
KGHS 140135Z 18004KT 08/01 A2997 RMK A01 T00770007  RH  062%=      5-min Rain = 0
KGHS 140140Z 18004KT 08/01 A2997 RMK A01 T00770007  RH  062%=      5-min Rain = 0
KGHS 140145Z 18003KT 08/01 A2997 RMK A01 T00770007  RH  062%=      5-min Rain = 0
KGHS 140150Z 17004KT 08/01 A2998 RMK A01 T00760007  RH  063%=      5-min Rain = 0
KGHS 140155Z 17003KT 08/01 A2998 RMK A01 T00750007  RH  063%=      5-min Rain = 0
KGHS 140200Z 16003KT 07/01 A2998 RMK A01 T00740007  RH  063%=      5-min Rain = 0
KGHS 140205Z 16003KT 07/01 A2998 RMK A01 T00720007  RH  064%=      5-min Rain = 0
KGHS 140210Z 16003KT 07/01 A2999 RMK A01 T00710007  RH  064%=      5-min Rain = 0
KGHS 140215Z 16003KT 07/01 A2999 RMK A01 T00700007  RH  065%=      5-min Rain = 0
KGHS 140220Z 16003KT 07/01 A2999 RMK A01 T00690007  RH  065%=      5-min Rain = 0
KGHS 140225Z 16003KT 07/01 A2999 RMK A01 T00680007  RH  066%=      5-min Rain = 0
KGHS 140230Z 16003KT 07/01 A2999 RMK A01 T00670007  RH  066%=      5-min Rain = 0
KGHS 140235Z 16003KT 07/01 A2999 RMK A01 T00670007  RH  066%=      5-min Rain = 0
KGHS 140240Z 14002KT 07/01 A2999 RMK A01 T00660007  RH  067%=      5-min Rain = 0
KGHS 140245Z 12002KT 06/01 A30 RMK A01 T00640006  RH  067%=      5-min Rain = 0
KGHS 140250Z 12003KT 06/01 A30 RMK A01 T00640007  RH  068%=      5-min Rain = 0
KGHS 140255Z 14002KT 06/01 A30 RMK A01 T00630007  RH  068%=      5-min Rain = 0
KGHS 140300Z 15001KT 06/01 A30 RMK A01 T00620007  RH  069%=      5-min Rain = 0
KGHS 140305Z 16002KT 06/01 A30 RMK A01 T00610006  RH  068%=      5-min Rain = 0
KGHS 140310Z 17001KT 06/01 A30 RMK A01 T00600005  RH  069%=      5-min Rain = 0
KGHS 140315Z 19001KT 06/01 A3001 RMK A01 T00580005  RH  070%=      5-min Rain = 0
KGHS 140320Z 23002KT 06/01 A3001 RMK A01 T00580006  RH  070%=      5-min Rain = 0
KGHS 140325Z 24002KT 06/01 A3001 RMK A01 T00560006  RH  071%=      5-min Rain = 0
KGHS 140330Z 23003KT 05/01 A3001 RMK A01 T00540005  RH  072%=      5-min Rain = 0
KGHS 140335Z 23002KT 05/01 A3001 RMK A01 T00500005  RH  074%=      5-min Rain = 0
KGHS 140340Z 22003KT 05/01 A3002 RMK A01 T00490005  RH  074%=      5-min Rain = 0
KGHS 140345Z 23002KT 05/01 A3002 RMK A01 T00480006  RH  075%=      5-min Rain = 0
KGHS 140350Z 23002KT 05/01 A3002 RMK A01 T00490006  RH  075%=      5-min Rain = 0
KGHS 140355Z 22002KT 05/01 A3002 RMK A01 T00490006  RH  075%=      5-min Rain = 0
KGHS 140400Z 21003KT 05/01 A3003 RMK A01 T00490006  RH  075%=      5-min Rain = 0
KGHS 140405Z 23002KT 05/01 A3003 RMK A01 T00490006  RH  075%=      5-min Rain = 0
KGHS 140410Z 23002KT 05/01 A3003 RMK A01 T00480006  RH  075%=      5-min Rain = 0
KGHS 140415Z 28002KT 05/01 A3003 RMK A01 T00470006  RH  076%=      5-min Rain = 0
KGHS 140420Z 29002KT 05/01 A3003 RMK A01 T00450006  RH  076%=      5-min Rain = 0
KGHS 140425Z 30003KT 05/01 A3003 RMK A01 T00450006  RH  076%=      5-min Rain = 0
KGHS 140430Z 29004KT 04/01 A3003 RMK A01 T00440005  RH  077%=      5-min Rain = 0
KGHS 140435Z 27003KT 04/01 A3004 RMK A01 T00440006  RH  077%=      5-min Rain = 0
KGHS 140440Z 26003KT 04/01 A3004 RMK A01 T00440006  RH  077%=      5-min Rain = 0
KGHS 140445Z 24005KT 05/01 A3004 RMK A01 T00450006  RH  077%=      5-min Rain = 0
KGHS 140450Z 24005KT 04/01 A3004 RMK A01 T00440007  RH  077%=      5-min Rain = 0
KGHS 140455Z 25006KT 04/01 A3004 RMK A01 T00420005  RH  078%=      5-min Rain = 0
KGHS 140500Z 25006KT 04/01 A3005 RMK A01 T00430007  RH  079%=      5-min Rain = 0
KGHS 140505Z 26006KT 05/01 A3005 RMK A01 T00450007  RH  077%=      5-min Rain = 0
KGHS 140510Z 27005KT 04/01 A3005 RMK A01 T00430006  RH  078%=      5-min Rain = 0
KGHS 140515Z 28005KT 04/00 A3005 RMK A01 T00400004  RH  079%=      5-min Rain = 0
KGHS 140520Z 29005KT 04/00 A3005 RMK A01 T00370004  RH  080%=      5-min Rain = 0
KGHS 140525Z 29005KT 04/00 A3005 RMK A01 T00350003  RH  081%=      5-min Rain = 0
KGHS 140530Z 29005KT 03/00 A3005 RMK A01 T00340003  RH  082%=      5-min Rain = 0
KGHS 140535Z 31006KT 03/00 A3005 RMK A01 T00340004  RH  082%=      5-min Rain = 0
KGHS 140540Z 30005KT 03/01 A3005 RMK A01 T00340005  RH  082%=      5-min Rain = 0
KGHS 140545Z 31005KT 04/01 A3006 RMK A01 T00370008  RH  082%=      5-min Rain = 0
KGHS 140550Z 31005KT 04/01 A3006 RMK A01 T00380008  RH  082%=      5-min Rain = 0
KGHS 140555Z 31006KT 04/01 A3006 RMK A01 T00360007  RH  082%=      5-min Rain = 0

Page generated in 0.015 seconds.